createdAt,value
2023-04-29T00:02:44.079Z,15.32
2023-04-29T00:07:46.406Z,15.31
2023-04-29T00:12:49.778Z,15.32
2023-04-29T00:17:52.193Z,15.25
2023-04-29T00:22:54.463Z,15.22
2023-04-29T00:27:56.664Z,15.16
2023-04-29T00:32:58.892Z,15.28
2023-04-29T00:38:01.126Z,15.27
2023-04-29T00:43:03.413Z,15.27
2023-04-29T00:48:06.137Z,15.50
2023-04-29T00:53:10.456Z,15.84
2023-04-29T00:58:12.886Z,15.43
2023-04-29T01:03:15.788Z,15.47
2023-04-29T01:08:48.647Z,15.14
2023-04-29T01:13:58.439Z,14.90
2023-04-29T01:19:13.067Z,14.89
2023-04-29T01:24:17.046Z,14.82
2023-04-29T01:29:59.151Z,14.89
2023-04-29T01:35:22.607Z,14.89
2023-04-29T01:40:38.071Z,15.04
2023-04-29T01:45:45.201Z,15.01
2023-04-29T01:50:49.324Z,15.14
2023-04-29T01:55:52.523Z,14.86
2023-04-29T02:00:57.633Z,15.01
2023-04-29T02:06:02.664Z,14.96
2023-04-29T02:11:04.942Z,15.39
2023-04-29T02:16:15.620Z,15.45
2023-04-29T02:21:27.460Z,15.20
2023-04-29T02:26:29.679Z,15.05
2023-04-29T02:31:32.136Z,15.08
2023-04-29T02:36:34.385Z,15.21
2023-04-29T02:41:36.526Z,15.30
2023-04-29T02:46:41.086Z,15.38
2023-04-29T02:51:43.655Z,14.98
2023-04-29T02:56:45.907Z,14.83
2023-04-29T03:01:48.275Z,14.81
2023-04-29T03:06:50.950Z,14.65
2023-04-29T03:11:53.471Z,14.40
2023-04-29T03:16:56.697Z,14.19
2023-04-29T03:21:59.042Z,14.09
2023-04-29T03:27:01.398Z,13.96
2023-04-29T03:32:03.909Z,13.95
2023-04-29T03:37:06.820Z,13.99
2023-04-29T03:42:12.626Z,14.40
2023-04-29T03:47:14.858Z,14.44
2023-04-29T03:52:17.439Z,14.80
2023-04-29T03:57:22.337Z,15.10
2023-04-29T04:02:25.517Z,14.77
2023-04-29T04:07:28.038Z,14.27
2023-04-29T04:12:50.078Z,13.43
2023-04-29T04:17:52.681Z,13.71
2023-04-29T04:22:55.285Z,14.03
2023-04-29T04:28:05.086Z,13.58
2023-04-29T04:33:26.331Z,12.92
2023-04-29T04:38:28.646Z,12.80
2023-04-29T04:43:31.217Z,13.41
2023-04-29T04:48:33.578Z,13.55
2023-04-29T04:53:35.857Z,13.48
2023-04-29T04:58:43.460Z,13.44
2023-04-29T05:03:46.042Z,13.78
2023-04-29T05:08:48.677Z,13.98
2023-04-29T05:13:51.644Z,14.31
2023-04-29T05:18:54.593Z,14.54
2023-04-29T05:23:59.938Z,15.03
2023-04-29T05:29:02.335Z,15.38
2023-04-29T05:34:10.027Z,15.99
2023-04-29T05:39:12.434Z,15.92
2023-04-29T05:44:14.933Z,16.02
2023-04-29T05:49:17.286Z,16.35
2023-04-29T05:54:19.608Z,16.41
2023-04-29T05:59:22.413Z,16.30
2023-04-29T06:04:28.805Z,16.50
2023-04-29T06:09:58.020Z,16.34
2023-04-29T06:15:01.570Z,16.19
2023-04-29T06:20:04.666Z,15.24
2023-04-29T06:25:07.420Z,15.89
2023-04-29T06:30:21.391Z,16.40
2023-04-29T06:35:23.493Z,16.91
2023-04-29T06:40:39.762Z,17.10
2023-04-29T06:46:05.693Z,16.93
2023-04-29T06:51:16.285Z,15.98
2023-04-29T06:56:18.751Z,16.31
2023-04-29T07:01:23.352Z,15.53
2023-04-29T07:06:27.120Z,15.25
2023-04-29T07:11:29.658Z,16.05
2023-04-29T07:16:31.877Z,16.72
2023-04-29T07:21:34.038Z,17.03
2023-04-29T07:26:36.412Z,17.43
2023-04-29T07:31:38.733Z,16.20
2023-04-29T07:36:41.280Z,16.39
2023-04-29T07:41:43.878Z,16.62
2023-04-29T07:46:46.988Z,16.73
2023-04-29T07:51:49.234Z,16.65
2023-04-29T07:56:51.481Z,16.71
2023-04-29T08:01:55.916Z,16.56
2023-04-29T08:06:58.493Z,16.56
2023-04-29T08:12:01.874Z,16.61
2023-04-29T08:17:05.219Z,16.90
2023-04-29T08:22:07.549Z,17.16
2023-04-29T08:27:09.647Z,17.16
2023-04-29T08:32:12.246Z,17.15
2023-04-29T08:37:17.005Z,16.89
2023-04-29T08:42:35.213Z,16.74
2023-04-29T08:47:38.053Z,16.92
2023-04-29T08:52:40.189Z,17.11
2023-04-29T08:57:45.494Z,17.14
2023-04-29T09:02:53.831Z,17.37
2023-04-29T09:07:59.873Z,17.01
2023-04-29T09:13:02.030Z,17.20
2023-04-29T09:18:04.505Z,17.43
2023-04-29T09:23:06.711Z,17.69
2023-04-29T09:28:18.116Z,18.20
2023-04-29T09:33:20.353Z,18.76
2023-04-29T09:38:22.557Z,18.98
2023-04-29T09:43:24.723Z,19.22
2023-04-29T09:48:33.919Z,19.53
2023-04-29T09:53:38.368Z,19.40
2023-04-29T09:58:40.671Z,19.53
2023-04-29T10:03:44.007Z,22.25
2023-04-29T10:08:48.968Z,23.34
2023-04-29T10:13:52.859Z,24.20
2023-04-29T10:18:56.965Z,25.98
2023-04-29T10:24:02.965Z,23.41
2023-04-29T10:29:08.601Z,21.43
2023-04-29T10:34:14.181Z,22.43
2023-04-29T10:39:44.139Z,21.84
2023-04-29T10:45:28.977Z,20.86
2023-04-29T10:50:35.717Z,20.74
2023-04-29T10:55:39.123Z,23.80
2023-04-29T11:00:41.580Z,21.87
2023-04-29T11:05:46.100Z,22.45
2023-04-29T11:10:48.654Z,23.47
2023-04-29T11:16:04.311Z,21.53
2023-04-29T11:21:06.599Z,20.63
2023-04-29T11:26:09.393Z,20.58
2023-04-29T11:31:12.041Z,21.11
2023-04-29T11:36:14.643Z,20.63
2023-04-29T11:41:20.510Z,20.68
2023-04-29T11:46:22.705Z,21.36
2023-04-29T11:51:24.938Z,22.81
2023-04-29T11:56:27.191Z,22.75
2023-04-29T12:01:29.547Z,22.18
2023-04-29T12:06:31.887Z,22.76
2023-04-29T12:11:34.428Z,26.07
2023-04-29T12:16:37.381Z,28.62
2023-04-29T12:21:50.351Z,29.03
2023-04-29T12:26:54.325Z,28.04
2023-04-29T12:31:56.981Z,28.48
2023-04-29T12:37:03.048Z,25.03
2023-04-29T12:42:05.548Z,24.73
2023-04-29T12:47:12.009Z,23.24
2023-04-29T12:52:14.542Z,22.74
2023-04-29T12:57:16.933Z,23.93
2023-04-29T13:02:19.413Z,23.86
2023-04-29T13:07:21.904Z,23.41
2023-04-29T13:12:24.017Z,24.27
2023-04-29T13:17:26.492Z,26.53
2023-04-29T13:22:29.488Z,26.90
2023-04-29T13:27:32.284Z,26.85
2023-04-29T13:32:43.955Z,27.20
2023-04-29T13:37:48.834Z,27.86
2023-04-29T13:42:59.619Z,25.99
2023-04-29T13:48:20.047Z,27.28
2023-04-29T13:53:51.028Z,25.15
2023-04-29T13:59:23.620Z,22.89
2023-04-29T14:04:13.396Z,24.29
2023-04-29T14:09:16.159Z,24.61
2023-04-29T14:14:18.432Z,24.44
2023-04-29T14:19:20.893Z,24.20
2023-04-29T14:24:23.058Z,22.96
2023-04-29T14:29:25.333Z,23.25
2023-04-29T14:34:27.473Z,21.79
2023-04-29T14:39:29.606Z,21.13
2023-04-29T14:44:31.707Z,20.72
2023-04-29T14:49:34.019Z,20.69
2023-04-29T14:54:36.390Z,20.62
2023-04-29T14:59:38.459Z,20.52
2023-04-29T15:04:45.750Z,20.19
2023-04-29T15:09:48.067Z,19.99
2023-04-29T15:14:51.053Z,20.23
2023-04-29T15:19:53.376Z,20.57
2023-04-29T15:24:55.613Z,20.57
2023-04-29T15:29:58.102Z,20.41
2023-04-29T15:35:02.023Z,20.23
2023-04-29T15:40:05.284Z,20.10
2023-04-29T15:45:08.986Z,19.87
2023-04-29T15:50:11.412Z,19.84
2023-04-29T15:55:13.678Z,19.84
2023-04-29T16:00:16.390Z,19.68
2023-04-29T16:05:18.442Z,19.74
2023-04-29T16:10:20.677Z,19.42
2023-04-29T16:15:22.957Z,19.44
2023-04-29T16:20:25.911Z,19.34
2023-04-29T16:25:28.371Z,19.31
2023-04-29T16:30:30.488Z,19.23
2023-04-29T16:35:32.811Z,18.96
2023-04-29T16:40:35.217Z,18.55
2023-04-29T16:45:37.345Z,18.35
2023-04-29T16:50:39.568Z,18.37
2023-04-29T16:55:46.007Z,18.51
2023-04-29T17:00:48.240Z,18.51
2023-04-29T17:05:50.446Z,18.36
2023-04-29T17:10:52.574Z,18.29
2023-04-29T17:15:54.753Z,18.21
2023-04-29T17:20:56.966Z,18.01
2023-04-29T17:25:59.126Z,17.97
2023-04-29T17:31:02.572Z,17.83
2023-04-29T17:36:05.955Z,17.78
2023-04-29T17:41:08.195Z,17.50
2023-04-29T17:46:10.492Z,17.51
2023-04-29T17:51:12.782Z,17.55
2023-04-29T17:56:14.925Z,17.28
2023-04-29T18:01:17.149Z,17.35
2023-04-29T18:06:19.396Z,17.36
2023-04-29T18:11:21.598Z,17.19
2023-04-29T18:16:23.932Z,17.17
2023-04-29T18:21:27.741Z,17.06
2023-04-29T18:26:29.937Z,17.08
2023-04-29T18:31:32.222Z,17.10
2023-04-29T18:36:34.522Z,17.15
2023-04-29T18:41:37.171Z,16.97
2023-04-29T18:46:39.587Z,17.03
2023-04-29T18:51:46.838Z,16.96
2023-04-29T18:56:50.273Z,16.91
2023-04-29T19:01:53.256Z,16.68
2023-04-29T19:06:55.578Z,16.24
2023-04-29T19:12:05.447Z,16.14
2023-04-29T19:17:07.736Z,16.30
2023-04-29T19:22:10.081Z,16.39
2023-04-29T19:27:12.656Z,16.24
2023-04-29T19:32:15.287Z,15.95
2023-04-29T19:37:17.750Z,15.98
2023-04-29T19:42:19.868Z,15.77
2023-04-29T19:47:24.173Z,15.76
2023-04-29T19:52:27.020Z,15.82
2023-04-29T19:57:29.116Z,15.72
2023-04-29T20:02:33.079Z,15.90
2023-04-29T20:07:35.529Z,16.06
2023-04-29T20:12:37.727Z,16.09
2023-04-29T20:17:40.182Z,16.15
2023-04-29T20:22:42.567Z,16.08
2023-04-29T20:27:44.784Z,15.66
2023-04-29T20:32:47.328Z,14.63
2023-04-29T20:37:49.748Z,15.14
2023-04-29T20:42:51.951Z,15.49
2023-04-29T20:47:54.693Z,15.67
2023-04-29T20:52:57.011Z,15.68
2023-04-29T20:57:59.137Z,15.65
2023-04-29T21:03:01.712Z,15.61
2023-04-29T21:08:03.996Z,15.31
2023-04-29T21:13:06.182Z,15.20
2023-04-29T21:18:08.391Z,15.36
2023-04-29T21:23:10.601Z,15.33
2023-04-29T21:28:14.317Z,15.51
2023-04-29T21:33:17.725Z,15.66
2023-04-29T21:38:19.903Z,15.30
2023-04-29T21:43:22.070Z,15.47
2023-04-29T21:48:25.341Z,15.44
2023-04-29T21:53:27.525Z,15.29
2023-04-29T21:58:29.678Z,15.32
2023-04-29T22:03:32.035Z,15.31
2023-04-29T22:08:34.236Z,15.39
2023-04-29T22:13:36.496Z,15.52
2023-04-29T22:18:38.907Z,15.47
2023-04-29T22:23:42.016Z,15.37
2023-04-29T22:28:44.379Z,15.56
2023-04-29T22:33:46.622Z,15.55
2023-04-29T22:38:49.104Z,15.45
2023-04-29T22:43:57.224Z,15.41
2023-04-29T22:48:59.709Z,15.37
2023-04-29T22:54:01.926Z,15.28
2023-04-29T22:59:04.140Z,15.32
2023-04-29T23:04:06.428Z,15.22
2023-04-29T23:09:08.799Z,15.42
2023-04-29T23:14:11.171Z,15.41
2023-04-29T23:19:13.407Z,15.29
2023-04-29T23:24:15.667Z,15.36
2023-04-29T23:29:18.079Z,15.29
2023-04-29T23:34:20.481Z,15.02
2023-04-29T23:39:22.789Z,15.08
2023-04-29T23:44:25.475Z,15.20
2023-04-29T23:49:28.728Z,15.15
2023-04-29T23:54:30.984Z,15.00
2023-04-29T23:59:33.175Z,15.19
